Stone Mountain, GA

8:20 AM EDT on June 02, 2015 (GMT -0400)
The Hartsfield Atlanta International | | Change Station
CLOSE
Current Station
Airport
Location: Atlanta,
Elevation: 1024 ft
Nearby Weather Stations

Elev 1024 ft 33.63 °N, 84.44 °W | Updated 28 minutes ago

Partly Cloudy
Partly Cloudy
68 °F
Feels Like 68 °F
N
0
Wind Variable Wind from North

Today
High -- | Low -- °F
--% Chance of Precip.
Yesterday
High -- | Low -- °F
Precip. -- in
6:26 AM 8:42 PM
Full, 100% visible
Pressure 30.02 in
Visibility 10.0 miles
Clouds Few 1500 ft
Scattered Clouds 3700 ft
Scattered Clouds 6000 ft
Scattered Clouds 25000 ft
Dew Point 64 °F
Humidity 87%
Rainfall 0.12 in
Snow Depth Not available.
UV 1 out of 12
Pollen 3.40 out of 12
Air Quality Not available.
Flu Activity Sporadic
METAR KATL 021152Z COR 00000KT 10SM FEW015 SCT037 SCT060 SCT250 20/18 A3004 RMK AO2 SLP166 60012 70015 T02000178 10211 20183 53007

More Conditions Fewer Conditions

Pressure 30.02 in
Visibility 10.0 miles
Clouds Few 1500 ft
Scattered Clouds 3700 ft
Scattered Clouds 6000 ft
Scattered Clouds 25000 ft
Dew Point 64 °F
Humidity 87%
Rainfall 0.12 in
Snow Depth Not available.
UV 1 out of 12
Pollen 3.40 out of 12
Air Quality Not available.
Flu Activity Sporadic
METAR KATL 021152Z COR 00000KT 10SM FEW015 SCT037 SCT060 SCT250 20/18 A3004 RMK AO2 SLP166 60012 70015 T02000178 10211 20183 53007

More Conditions Fewer Conditions

10-Day Weather Forecast

Almanac

Astronomy

Jun. 02, 2015 Rise Set
Actual Time
Civil Twilight
Nautical Twilight
Astronomical Twilight
Moon
Length of Visible Light
Length of Day
Tomorrow will be .
, % of the Moon is Illuminated

Today's Extremes

State Highs State Lows

Community

WunderPhotos

Upload Photos

1,825,881 photos uploaded!

WunderBlogs® & News

Nearby

Air Quality

  Air Quality AQ Index Pollutant
Not available.

Snow Depth

Station Depth Elevation

Earthquake Activity

City Distance Mag. Time & Date
Minimum magnitude displayed is 2.5.

Coastal Water Temperatures

Place Temperature

Stations

Nearby Weather Stations

Station Location Temp. Windchill Dew Point Humidity Wind Precip. Elev Updated Type